Station Historical Data
Daily Summary for June 30, 2012 Units:  Both    English   Metric
« Previous Day
Next Day »
Daily Weekly Monthly Yearly Custom
  High: Low: Average:
Temperature: 102.2 °F /  39 °C 76.9 °F /  24.9 °C 89 °F /  31.7 °C
Dew Point: 72.6 °F /  22.6 °C 62.7 °F /  17.1 °C 67.5 °F /  19.7 °C
Humidity: 74% 28% 52%
Wind Speed: 15.0mph /  24.1km/h - 2.6mph /  4.2km/h
Wind Gust: 15.0mph /  24.1km/h - -
Wind- - WSW
Pressure: 29.86 in /  1011.1 hPa 29.78 in /  1008.4 hPa -
Precipitation: 0.00 in /  0 mm    
Historical Graphs
 
 
Tabular Data for June 30, 2012
Time Temperature Dew Point Pressure Wind Wind Speed Wind Gust Humidity Rainfall Rate (Hourly) Conditions
00:00 83.8 °F /  28.8 °C 65.4 °F /  18.6 °C 29.81in /  1009.4hPa SW 1.0mph /  1.6km/h 1.0mph /  1.6km/h 54% 0.00in /  0mm
00:05 83.9 °F /  28.8 °C 65.5 °F /  18.6 °C 29.81in /  1009.4hPa SW 1.0mph /  1.6km/h 1.0mph /  1.6km/h 54% 0.00in /  0mm
00:10 83.8 °F /  28.8 °C 65.4 °F /  18.6 °C 29.81in /  1009.4hPa SW 1.0mph /  1.6km/h 2.0mph /  3.2km/h 54% 0.00in /  0mm
00:15 83.6 °F /  28.7 °C 65.2 °F /  18.4 °C 29.82in /  1009.7hPa SW 1.0mph /  1.6km/h 2.0mph /  3.2km/h 54% 0.00in /  0mm
00:20 83.6 °F /  28.7 °C 65.2 °F /  18.4 °C 29.81in /  1009.4hPa SW 1.0mph /  1.6km/h 2.0mph /  3.2km/h 54% 0.00in /  0mm
00:25 83.6 °F /  28.7 °C 65.2 °F /  18.4 °C 29.81in /  1009.4hPa SW 1.0mph /  1.6km/h 2.0mph /  3.2km/h 54% 0.00in /  0mm
00:30 83.4 °F /  28.6 °C 65.6 °F /  18.7 °C 29.82in /  1009.7hPa SW 1.0mph /  1.6km/h 1.0mph /  1.6km/h 55% 0.00in /  0mm
00:35 83.2 °F /  28.4 °C 65.4 °F /  18.6 °C 29.82in /  1009.7hPa SW 1.0mph /  1.6km/h 1.0mph /  1.6km/h 55% 0.00in /  0mm
00:40 83.2 °F /  28.4 °C 65.4 °F /  18.6 °C 29.82in /  1009.7hPa SW 1.0mph /  1.6km/h 2.0mph /  3.2km/h 55% 0.00in /  0mm
00:45 83.3 °F /  28.5 °C 66.0 °F /  18.9 °C 29.82in /  1009.7hPa SW 1.0mph /  1.6km/h 1.0mph /  1.6km/h 56% 0.00in /  0mm
00:50 83.2 °F /  28.4 °C 65.9 °F /  18.8 °C 29.82in /  1009.7hPa Calm   2.0mph /  3.2km/h 56% 0.00in /  0mm
00:55 83.0 °F /  28.3 °C 65.7 °F /  18.7 °C 29.82in /  1009.7hPa SW 1.0mph /  1.6km/h 1.0mph /  1.6km/h 56% 0.00in /  0mm
01:00 83.0 °F /  28.3 °C 66.2 °F /  19 °C 29.82in /  1009.7hPa Calm   1.0mph /  1.6km/h 57% 0.00in /  0mm
01:05 82.8 °F /  28.2 °C 66.0 °F /  18.9 °C 29.82in /  1009.7hPa Calm   1.0mph /  1.6km/h 57% 0.00in /  0mm
01:11 82.5 °F /  28.1 °C 66.2 °F /  19 °C 29.82in /  1009.7hPa Calm   2.0mph /  3.2km/h 58% 0.00in /  0mm
01:16 82.3 °F /  27.9 °C 66.6 °F /  19.2 °C 29.82in /  1009.7hPa Calm     59% 0.00in /  0mm
01:21 82.2 °F /  27.9 °C 66.5 °F /  19.2 °C 29.82in /  1009.7hPa SW 1.0mph /  1.6km/h 1.0mph /  1.6km/h 59% 0.00in /  0mm
01:26 82.2 °F /  27.9 °C 66.9 °F /  19.4 °C 29.82in /  1009.7hPa Calm   1.0mph /  1.6km/h 60% 0.00in /  0mm
01:31 82.0 °F /  27.8 °C 66.8 °F /  19.3 °C 29.82in /  1009.7hPa Calm   1.0mph /  1.6km/h 60% 0.00in /  0mm
01:36 82.2 °F /  27.9 °C 66.5 °F /  19.2 °C 29.82in /  1009.7hPa WSW 1.0mph /  1.6km/h 1.0mph /  1.6km/h 59% 0.00in /  0mm
01:41 82.4 °F /  28 °C 66.7 °F /  19.3 °C 29.82in /  1009.7hPa West 1.0mph /  1.6km/h 2.0mph /  3.2km/h 59% 0.00in /  0mm
01:46 82.4 °F /  28 °C 66.7 °F /  19.3 °C 29.82in /  1009.7hPa WSW 1.0mph /  1.6km/h 1.0mph /  1.6km/h 59% 0.00in /  0mm
01:51 82.5 °F /  28.1 °C 66.7 °F /  19.3 °C 29.82in /  1009.7hPa SW 1.0mph /  1.6km/h 1.0mph /  1.6km/h 59% 0.00in /  0mm
01:56 82.5 °F /  28.1 °C 66.7 °F /  19.3 °C 29.82in /  1009.7hPa Calm   1.0mph /  1.6km/h 59% 0.00in /  0mm
02:01 82.5 °F /  28.1 °C 66.7 °F /  19.3 °C 29.81in /  1009.4hPa Calm     59% 0.00in /  0mm
02:06 82.4 °F /  28 °C 66.2 °F /  19 °C 29.81in /  1009.4hPa WSW 1.0mph /  1.6km/h 2.0mph /  3.2km/h 58% 0.00in /  0mm
02:11 82.5 °F /  28.1 °C 66.2 °F /  19 °C 29.81in /  1009.4hPa WSW 1.0mph /  1.6km/h 2.0mph /  3.2km/h 58% 0.00in /  0mm
02:16 82.4 °F /  28 °C 66.7 °F /  19.3 °C 29.81in /  1009.4hPa Calm   2.0mph /  3.2km/h 59% 0.00in /  0mm
02:21 82.0 °F /  27.8 °C 66.3 °F /  19.1 °C 29.81in /  1009.4hPa Calm   1.0mph /  1.6km/h 59% 0.00in /  0mm
02:26 81.8 °F /  27.7 °C 66.6 °F /  19.2 °C 29.81in /  1009.4hPa Calm   1.0mph /  1.6km/h 60% 0.00in /  0mm
02:31 81.5 °F /  27.5 °C 66.3 °F /  19.1 °C 29.81in /  1009.4hPa Calm     60% 0.00in /  0mm
02:36 81.2 °F /  27.3 °C 66.5 °F /  19.2 °C 29.81in /  1009.4hPa Calm     61% 0.00in /  0mm
02:41 81.1 °F /  27.3 °C 66.9 °F /  19.4 °C 29.80in /  1009hPa Calm     62% 0.00in /  0mm
02:46 80.9 °F /  27.2 °C 67.1 °F /  19.5 °C 29.80in /  1009hPa Calm     63% 0.00in /  0mm
02:51 80.6 °F /  27 °C 66.8 °F /  19.3 °C 29.80in /  1009hPa Calm     63% 0.00in /  0mm
02:56 80.4 °F /  26.9 °C 66.7 °F /  19.3 °C 29.80in /  1009hPa Calm   1.0mph /  1.6km/h 63% 0.00in /  0mm
03:01 80.2 °F /  26.8 °C 66.5 °F /  19.2 °C 29.80in /  1009hPa Calm   1.0mph /  1.6km/h 63% 0.00in /  0mm
03:06 80.0 °F /  26.7 °C 67.2 °F /  19.6 °C 29.80in /  1009hPa SW 1.0mph /  1.6km/h 1.0mph /  1.6km/h 65% 0.00in /  0mm
03:11 80.0 °F /  26.7 °C 67.2 °F /  19.6 °C 29.80in /  1009hPa SW 1.0mph /  1.6km/h 1.0mph /  1.6km/h 65% 0.00in /  0mm
03:16 79.9 °F /  26.6 °C 67.1 °F /  19.5 °C 29.80in /  1009hPa Calm     65% 0.00in /  0mm
03:21 79.7 °F /  26.5 °C 66.9 °F /  19.4 °C 29.80in /  1009hPa Calm   1.0mph /  1.6km/h 65% 0.00in /  0mm
03:26 79.6 °F /  26.4 °C 66.8 °F /  19.3 °C 29.80in /  1009hPa Calm   1.0mph /  1.6km/h 65% 0.00in /  0mm
03:31 79.5 °F /  26.4 °C 67.2 °F /  19.6 °C 29.80in /  1009hPa Calm   1.0mph /  1.6km/h 66% 0.00in /  0mm
03:36 79.4 °F /  26.3 °C 67.1 °F /  19.5 °C 29.80in /  1009hPa Calm   1.0mph /  1.6km/h 66% 0.00in /  0mm
03:41 79.2 °F /  26.2 °C 67.3 °F /  19.6 °C 29.79in /  1008.7hPa Calm     67% 0.00in /  0mm
03:46 79.3 °F /  26.3 °C 67.4 °F /  19.7 °C 29.80in /  1009hPa West 1.0mph /  1.6km/h 1.0mph /  1.6km/h 67% 0.00in /  0mm
03:51 79.3 °F /  26.3 °C 67.4 °F /  19.7 °C 29.80in /  1009hPa NNW 1.0mph /  1.6km/h 2.0mph /  3.2km/h 67% 0.00in /  0mm
03:56 79.0 °F /  26.1 °C 67.6 °F /  19.8 °C 29.80in /  1009hPa Calm   1.0mph /  1.6km/h 68% 0.00in /  0mm
04:01 78.8 °F /  26 °C 67.4 °F /  19.7 °C 29.80in /  1009hPa NW 1.0mph /  1.6km/h 1.0mph /  1.6km/h 68% 0.00in /  0mm
04:06 78.6 °F /  25.9 °C 67.2 °F /  19.6 °C 29.80in /  1009hPa Calm   1.0mph /  1.6km/h 68% 0.00in /  0mm
04:11 78.7 °F /  25.9 °C 67.3 °F /  19.6 °C 29.80in /  1009hPa NW 1.0mph /  1.6km/h 1.0mph /  1.6km/h 68% 0.00in /  0mm
04:16 78.7 °F /  25.9 °C 67.3 °F /  19.6 °C 29.80in /  1009hPa Calm   1.0mph /  1.6km/h 68% 0.00in /  0mm
04:22 78.6 °F /  25.9 °C 67.6 °F /  19.8 °C 29.80in /  1009hPa West 1.0mph /  1.6km/h 1.0mph /  1.6km/h 69% 0.00in /  0mm
04:27 78.6 °F /  25.9 °C 67.6 °F /  19.8 °C 29.80in /  1009hPa WSW 1.0mph /  1.6km/h 1.0mph /  1.6km/h 69% 0.00in /  0mm
04:32 78.6 °F /  25.9 °C 68.0 °F /  20 °C 29.80in /  1009hPa Calm   1.0mph /  1.6km/h 70% 0.00in /  0mm
04:37 78.5 °F /  25.8 °C 67.9 °F /  19.9 °C 29.80in /  1009hPa Calm   1.0mph /  1.6km/h 70% 0.00in /  0mm
04:42 78.4 °F /  25.8 °C 67.8 °F /  19.9 °C 29.80in /  1009hPa Calm   1.0mph /  1.6km/h 70% 0.00in /  0mm
04:47 78.3 °F /  25.7 °C 68.1 °F /  20.1 °C 29.80in /  1009hPa WSW 1.0mph /  1.6km/h 1.0mph /  1.6km/h 71% 0.00in /  0mm
04:52 78.3 °F /  25.7 °C 68.1 °F /  20.1 °C 29.80in /  1009hPa Calm   1.0mph /  1.6km/h 71% 0.00in /  0mm
04:57 78.2 °F /  25.7 °C 68.0 °F /  20 °C 29.80in /  1009hPa Calm   1.0mph /  1.6km/h 71% 0.00in /  0mm
05:02 78.1 °F /  25.6 °C 67.9 °F /  19.9 °C 29.80in /  1009hPa Calm   1.0mph /  1.6km/h 71% 0.00in /  0mm
05:07 78.2 °F /  25.7 °C 68.0 °F /  20 °C 29.80in /  1009hPa West 1.0mph /  1.6km/h 1.0mph /  1.6km/h 71% 0.00in /  0mm
05:12 78.0 °F /  25.6 °C 67.8 °F /  19.9 °C 29.80in /  1009hPa Calm   1.0mph /  1.6km/h 71% 0.00in /  0mm
05:17 77.6 °F /  25.3 °C 67.9 °F /  19.9 °C 29.80in /  1009hPa Calm   1.0mph /  1.6km/h 72% 0.00in /  0mm
05:22 77.4 °F /  25.2 °C 68.1 °F /  20.1 °C 29.80in /  1009hPa Calm     73% 0.00in /  0mm
05:27 77.5 °F /  25.3 °C 68.2 °F /  20.1 °C 29.80in /  1009hPa West 1.0mph /  1.6km/h 1.0mph /  1.6km/h 73% 0.00in /  0mm
05:32 77.6 °F /  25.3 °C 68.3 °F /  20.2 °C 29.80in /  1009hPa WNW 1.0mph /  1.6km/h 1.0mph /  1.6km/h 73% 0.00in /  0mm
05:37 77.6 °F /  25.3 °C 67.9 °F /  19.9 °C 29.80in /  1009hPa NW 1.0mph /  1.6km/h 2.0mph /  3.2km/h 72% 0.00in /  0mm
05:42 77.7 °F /  25.4 °C 68.0 °F /  20 °C 29.80in /  1009hPa NW 1.0mph /  1.6km/h 1.0mph /  1.6km/h 72% 0.00in /  0mm
05:47 77.8 °F /  25.4 °C 68.1 °F /  20.1 °C 29.81in /  1009.4hPa NW 1.0mph /  1.6km/h 1.0mph /  1.6km/h 72% 0.00in /  0mm
05:52 77.8 °F /  25.4 °C 68.1 °F /  20.1 °C 29.81in /  1009.4hPa NW 1.0mph /  1.6km/h 2.0mph /  3.2km/h 72% 0.00in /  0mm
05:57 77.6 °F /  25.3 °C 67.9 °F /  19.9 °C 29.81in /  1009.4hPa NW 2.0mph /  3.2km/h 2.0mph /  3.2km/h 72% 0.00in /  0mm
06:02 77.4 °F /  25.2 °C 68.1 °F /  20.1 °C 29.81in /  1009.4hPa NW 1.0mph /  1.6km/h 2.0mph /  3.2km/h 73% 0.00in /  0mm
06:07 77.0 °F /  25 °C 67.7 °F /  19.8 °C 29.81in /  1009.4hPa Calm   2.0mph /  3.2km/h 73% 0.00in /  0mm
06:12 76.9 °F /  24.9 °C 68.0 °F /  20 °C 29.81in /  1009.4hPa WNW 1.0mph /  1.6km/h 1.0mph /  1.6km/h 74% 0.00in /  0mm
06:17 76.9 °F /  24.9 °C 68.0 °F /  20 °C 29.82in /  1009.7hPa WNW 1.0mph /  1.6km/h 1.0mph /  1.6km/h 74% 0.00in /  0mm
06:22 77.0 °F /  25 °C 68.1 °F /  20.1 °C 29.82in /  1009.7hPa Calm   2.0mph /  3.2km/h 74% 0.00in /  0mm
06:27 77.0 °F /  25 °C 68.1 °F /  20.1 °C 29.82in /  1009.7hPa WNW 1.0mph /  1.6km/h 1.0mph /  1.6km/h 74% 0.00in /  0mm
06:32 77.1 °F /  25.1 °C 67.8 °F /  19.9 °C 29.82in /  1009.7hPa WNW 1.0mph /  1.6km/h 1.0mph /  1.6km/h 73% 0.00in /  0mm
06:37 77.3 °F /  25.2 °C 68.0 °F /  20 °C 29.82in /  1009.7hPa West 1.0mph /  1.6km/h 1.0mph /  1.6km/h 73% 0.00in /  0mm
06:42 77.4 °F /  25.2 °C 67.7 °F /  19.8 °C 29.82in /  1009.7hPa West 1.0mph /  1.6km/h 1.0mph /  1.6km/h 72% 0.00in /  0mm
06:47 77.4 °F /  25.2 °C 67.7 °F /  19.8 °C 29.82in /  1009.7hPa Calm   1.0mph /  1.6km/h 72% 0.00in /  0mm
06:52 77.2 °F /  25.1 °C 67.9 °F /  19.9 °C 29.82in /  1009.7hPa West 1.0mph /  1.6km/h 1.0mph /  1.6km/h 73% 0.00in /  0mm
06:57 77.2 °F /  25.1 °C 67.9 °F /  19.9 °C 29.82in /  1009.7hPa WNW 1.0mph /  1.6km/h 1.0mph /  1.6km/h 73% 0.00in /  0mm
07:02 77.2 °F /  25.1 °C 67.9 °F /  19.9 °C 29.83in /  1010hPa Calm   1.0mph /  1.6km/h 73% 0.00in /  0mm
07:07 77.1 °F /  25.1 °C 67.8 °F /  19.9 °C 29.83in /  1010hPa Calm   1.0mph /  1.6km/h 73% 0.00in /  0mm
07:13 77.1 °F /  25.1 °C 67.8 °F /  19.9 °C 29.83in /  1010hPa NW 1.0mph /  1.6km/h 1.0mph /  1.6km/h 73% 0.00in /  0mm
07:18 77.1 °F /  25.1 °C 67.8 °F /  19.9 °C 29.83in /  1010hPa Calm   1.0mph /  1.6km/h 73% 0.00in /  0mm
07:23 77.2 °F /  25.1 °C 67.9 °F /  19.9 °C 29.84in /  1010.4hPa Calm     73% 0.00in /  0mm
07:28 77.5 °F /  25.3 °C 67.8 °F /  19.9 °C 29.84in /  1010.4hPa Calm     72% 0.00in /  0mm
07:33 77.8 °F /  25.4 °C 68.1 °F /  20.1 °C 29.84in /  1010.4hPa Calm   1.0mph /  1.6km/h 72% 0.00in /  0mm
07:38 77.9 °F /  25.5 °C 68.2 °F /  20.1 °C 29.84in /  1010.4hPa Calm     72% 0.00in /  0mm
07:43 78.2 °F /  25.7 °C 68.4 °F /  20.2 °C 29.85in /  1010.7hPa NW 2.0mph /  3.2km/h 2.0mph /  3.2km/h 72% 0.00in /  0mm
07:48 78.2 °F /  25.7 °C 68.4 °F /  20.2 °C 29.85in /  1010.7hPa NNW 2.0mph /  3.2km/h 2.0mph /  3.2km/h 72% 0.00in /  0mm
07:53 78.2 °F /  25.7 °C 68.8 °F /  20.4 °C 29.85in /  1010.7hPa NNW 1.0mph /  1.6km/h 2.0mph /  3.2km/h 73% 0.00in /  0mm
07:58 78.4 °F /  25.8 °C 69.0 °F /  20.6 °C 29.86in /  1011.1hPa NNW 1.0mph /  1.6km/h 2.0mph /  3.2km/h 73% 0.00in /  0mm
08:03 78.8 °F /  26 °C 69.0 °F /  20.6 °C 29.86in /  1011.1hPa NNW 3.0mph /  4.8km/h 3.0mph /  4.8km/h 72% 0.00in /  0mm
08:08 79.1 °F /  26.2 °C 69.7 °F /  20.9 °C 29.86in /  1011.1hPa NW 1.0mph /  1.6km/h 3.0mph /  4.8km/h 73% 0.00in /  0mm
08:13 79.3 °F /  26.3 °C 69.5 °F /  20.8 °C 29.86in /  1011.1hPa NNW 2.0mph /  3.2km/h 3.0mph /  4.8km/h 72% 0.00in /  0mm
08:18 79.7 °F /  26.5 °C 69.9 °F /  21.1 °C 29.86in /  1011.1hPa NW 2.0mph /  3.2km/h 3.0mph /  4.8km/h 72% 0.00in /  0mm
08:23 80.0 °F /  26.7 °C 69.8 °F /  21 °C 29.86in /  1011.1hPa WNW 3.0mph /  4.8km/h 3.0mph /  4.8km/h 71% 0.00in /  0mm
08:28 80.3 °F /  26.8 °C 70.1 °F /  21.2 °C 29.86in /  1011.1hPa WNW 3.0mph /  4.8km/h 4.0mph /  6.4km/h 71% 0.00in /  0mm
08:34 80.6 °F /  27 °C 69.9 °F /  21.1 °C 29.86in /  1011.1hPa WNW 2.0mph /  3.2km/h 4.0mph /  6.4km/h 70% 0.00in /  0mm
08:39 80.9 °F /  27.2 °C 69.8 °F /  21 °C 29.86in /  1011.1hPa NW 3.0mph /  4.8km/h 5.0mph /  8km/h 69% 0.00in /  0mm
08:44 81.3 °F /  27.4 °C 70.2 °F /  21.2 °C 29.86in /  1011.1hPa WNW 4.0mph /  6.4km/h 5.0mph /  8km/h 69% 0.00in /  0mm
08:49 81.6 °F /  27.6 °C 70.0 °F /  21.1 °C 29.86in /  1011.1hPa WNW 5.0mph /  8km/h 6.0mph /  9.7km/h 68% 0.00in /  0mm
08:54 81.8 °F /  27.7 °C 70.2 °F /  21.2 °C 29.86in /  1011.1hPa WNW 6.0mph /  9.7km/h 7.0mph /  11.3km/h 68% 0.00in /  0mm
08:59 82.2 °F /  27.9 °C 70.2 °F /  21.2 °C 29.86in /  1011.1hPa WNW 2.0mph /  3.2km/h 6.0mph /  9.7km/h 67% 0.00in /  0mm
09:04 82.7 °F /  28.2 °C 70.2 °F /  21.2 °C 29.86in /  1011.1hPa NW 6.0mph /  9.7km/h 6.0mph /  9.7km/h 66% 0.00in /  0mm
09:09 83.0 °F /  28.3 °C 70.5 °F /  21.4 °C 29.86in /  1011.1hPa WNW 4.0mph /  6.4km/h 7.0mph /  11.3km/h 66% 0.00in /  0mm
09:14 83.3 °F /  28.5 °C 70.3 °F /  21.3 °C 29.86in /  1011.1hPa WNW 5.0mph /  8km/h 7.0mph /  11.3km/h 65% 0.00in /  0mm
09:19 83.5 °F /  28.6 °C 70.5 °F /  21.4 °C 29.86in /  1011.1hPa WNW 5.0mph /  8km/h 7.0mph /  11.3km/h 65% 0.00in /  0mm
09:24 83.8 °F /  28.8 °C 69.9 °F /  21.1 °C 29.86in /  1011.1hPa WNW 5.0mph /  8km/h 9.0mph /  14.5km/h 63% 0.00in /  0mm
09:29 84.1 °F /  28.9 °C 71.1 °F /  21.7 °C 29.86in /  1011.1hPa WNW 3.0mph /  4.8km/h 7.0mph /  11.3km/h 65% 0.00in /  0mm
09:34 84.5 °F /  29.2 °C 70.5 °F /  21.4 °C 29.86in /  1011.1hPa WNW 6.0mph /  9.7km/h 9.0mph /  14.5km/h 63% 0.00in /  0mm
09:39 84.8 °F /  29.3 °C 70.8 °F /  21.6 °C 29.86in /  1011.1hPa WNW 6.0mph /  9.7km/h 7.0mph /  11.3km/h 63% 0.00in /  0mm
09:44 85.1 °F /  29.5 °C 70.6 °F /  21.4 °C 29.86in /  1011.1hPa West 5.0mph /  8km/h 6.0mph /  9.7km/h 62% 0.00in /  0mm
09:49 85.4 °F /  29.7 °C 70.9 °F /  21.6 °C 29.86in /  1011.1hPa NW 5.0mph /  8km/h 8.0mph /  12.9km/h 62% 0.00in /  0mm
09:54 85.7 °F /  29.8 °C 71.2 °F /  21.8 °C 29.86in /  1011.1hPa West 6.0mph /  9.7km/h 6.0mph /  9.7km/h 62% 0.00in /  0mm
09:59 86.2 °F /  30.1 °C 71.2 °F /  21.8 °C 29.86in /  1011.1hPa WNW 2.0mph /  3.2km/h 8.0mph /  12.9km/h 61% 0.00in /  0mm
10:04 86.6 °F /  30.3 °C 71.6 °F /  22 °C 29.86in /  1011.1hPa NW 4.0mph /  6.4km/h 7.0mph /  11.3km/h 61% 0.00in /  0mm
10:09 86.9 °F /  30.5 °C 71.8 °F /  22.1 °C 29.86in /  1011.1hPa NW 6.0mph /  9.7km/h 6.0mph /  9.7km/h 61% 0.00in /  0mm
10:14 87.3 °F /  30.7 °C 71.7 °F /  22.1 °C 29.86in /  1011.1hPa NW 4.0mph /  6.4km/h 8.0mph /  12.9km/h 60% 0.00in /  0mm
10:19 87.7 °F /  30.9 °C 71.6 °F /  22 °C 29.85in /  1010.7hPa WNW 5.0mph /  8km/h 7.0mph /  11.3km/h 59% 0.00in /  0mm
10:24 88.2 °F /  31.2 °C 72.6 °F /  22.6 °C 29.85in /  1010.7hPa WNW 5.0mph /  8km/h 6.0mph /  9.7km/h 60% 0.00in /  0mm
10:29 88.2 °F /  31.2 °C 72.1 °F /  22.3 °C 29.85in /  1010.7hPa WNW 5.0mph /  8km/h 6.0mph /  9.7km/h 59% 0.00in /  0mm
10:34 88.5 °F /  31.4 °C 72.3 °F /  22.4 °C 29.85in /  1010.7hPa NW 3.0mph /  4.8km/h 5.0mph /  8km/h 59% 0.00in /  0mm
10:39 88.8 °F /  31.6 °C 72.6 °F /  22.6 °C 29.85in /  1010.7hPa WNW 4.0mph /  6.4km/h 6.0mph /  9.7km/h 59% 0.00in /  0mm
10:44 89.2 °F /  31.8 °C 72.5 °F /  22.5 °C 29.85in /  1010.7hPa WNW 2.0mph /  3.2km/h 4.0mph /  6.4km/h 58% 0.00in /  0mm
10:49 89.9 °F /  32.2 °C 71.6 °F /  22 °C 29.85in /  1010.7hPa WNW 4.0mph /  6.4km/h 5.0mph /  8km/h 55% 0.00in /  0mm
10:54 90.3 °F /  32.4 °C 71.9 °F /  22.2 °C 29.85in /  1010.7hPa West 2.0mph /  3.2km/h 5.0mph /  8km/h 55% 0.00in /  0mm
11:00 90.6 °F /  32.6 °C 72.2 °F /  22.3 °C 29.85in /  1010.7hPa WNW 3.0mph /  4.8km/h 6.0mph /  9.7km/h 55% 0.00in /  0mm
11:05 91.0 °F /  32.8 °C 72.1 °F /  22.3 °C 29.85in /  1010.7hPa WNW 2.0mph /  3.2km/h 6.0mph /  9.7km/h 54% 0.00in /  0mm
11:10 91.6 °F /  33.1 °C 72.1 °F /  22.3 °C 29.85in /  1010.7hPa WNW 2.0mph /  3.2km/h 8.0mph /  12.9km/h 53% 0.00in /  0mm
11:15 92.0 °F /  33.3 °C 71.9 °F /  22.2 °C 29.85in /  1010.7hPa West 3.0mph /  4.8km/h 5.0mph /  8km/h 52% 0.00in /  0mm
11:20 92.7 °F /  33.7 °C 72.5 °F /  22.5 °C 29.85in /  1010.7hPa NW 4.0mph /  6.4km/h 4.0mph /  6.4km/h 52% 0.00in /  0mm
11:25 93.0 °F /  33.9 °C 71.6 °F /  22 °C 29.85in /  1010.7hPa North 4.0mph /  6.4km/h 5.0mph /  8km/h 50% 0.00in /  0mm
11:30 92.9 °F /  33.8 °C 70.9 °F /  21.6 °C 29.85in /  1010.7hPa Calm   5.0mph /  8km/h 49% 0.00in /  0mm
11:35 93.3 °F /  34.1 °C 71.9 °F /  22.2 °C 29.85in /  1010.7hPa NNW 3.0mph /  4.8km/h 7.0mph /  11.3km/h 50% 0.00in /  0mm
11:40 93.9 °F /  34.4 °C 71.2 °F /  21.8 °C 29.85in /  1010.7hPa NNW 2.0mph /  3.2km/h 4.0mph /  6.4km/h 48% 0.00in /  0mm
11:45 94.0 °F /  34.4 °C 71.3 °F /  21.8 °C 29.85in /  1010.7hPa West 1.0mph /  1.6km/h 4.0mph /  6.4km/h 48% 0.00in /  0mm
11:50 94.0 °F /  34.4 °C 71.3 °F /  21.8 °C 29.84in /  1010.4hPa West 4.0mph /  6.4km/h 5.0mph /  8km/h 48% 0.00in /  0mm
11:55 94.4 °F /  34.7 °C 70.4 °F /  21.3 °C 29.84in /  1010.4hPa Calm   3.0mph /  4.8km/h 46% 0.00in /  0mm
12:00 94.9 °F /  34.9 °C 70.9 °F /  21.6 °C 29.84in /  1010.4hPa WNW 3.0mph /  4.8km/h 5.0mph /  8km/h 46% 0.00in /  0mm
12:05 95.1 °F /  35.1 °C 69.8 °F /  21 °C 29.84in /  1010.4hPa NNE 3.0mph /  4.8km/h 6.0mph /  9.7km/h 44% 0.00in /  0mm
12:10 95.2 °F /  35.1 °C 69.9 °F /  21.1 °C 29.84in /  1010.4hPa NE 4.0mph /  6.4km/h 4.0mph /  6.4km/h 44% 0.00in /  0mm
12:15 95.1 °F /  35.1 °C 70.4 °F /  21.3 °C 29.84in /  1010.4hPa NE 3.0mph /  4.8km/h 5.0mph /  8km/h 45% 0.00in /  0mm
12:20 95.0 °F /  35 °C 70.3 °F /  21.3 °C 29.84in /  1010.4hPa ENE 4.0mph /  6.4km/h 5.0mph /  8km/h 45% 0.00in /  0mm
12:25 95.2 °F /  35.1 °C 71.8 °F /  22.1 °C 29.84in /  1010.4hPa NE 2.0mph /  3.2km/h 4.0mph /  6.4km/h 47% 0.00in /  0mm
12:30 95.7 °F /  35.4 °C 69.6 °F /  20.9 °C 29.84in /  1010.4hPa NW 2.0mph /  3.2km/h 5.0mph /  8km/h 43% 0.00in /  0mm
12:35 96.0 °F /  35.6 °C 68.5 °F /  20.3 °C 29.84in /  1010.4hPa NNW 3.0mph /  4.8km/h 4.0mph /  6.4km/h 41% 0.00in /  0mm
12:40 96.5 °F /  35.8 °C 69.0 °F /  20.6 °C 29.84in /  1010.4hPa NNW 1.0mph /  1.6km/h 3.0mph /  4.8km/h 41% 0.00in /  0mm
12:45 97.3 °F /  36.3 °C 69.0 °F /  20.6 °C 29.83in /  1010hPa WNW 3.0mph /  4.8km/h 8.0mph /  12.9km/h 40% 0.00in /  0mm
12:50 97.7 °F /  36.5 °C 67.1 °F /  19.5 °C 29.83in /  1010hPa WSW 4.0mph /  6.4km/h 6.0mph /  9.7km/h 37% 0.00in /  0mm
12:55 97.3 °F /  36.3 °C 66.7 °F /  19.3 °C 29.84in /  1010.4hPa WNW 3.0mph /  4.8km/h 8.0mph /  12.9km/h 37% 0.00in /  0mm
13:00 97.2 °F /  36.2 °C 68.1 °F /  20.1 °C 29.84in /  1010.4hPa West 4.0mph /  6.4km/h 6.0mph /  9.7km/h 39% 0.00in /  0mm
13:05 97.0 °F /  36.1 °C 66.4 °F /  19.1 °C 29.83in /  1010hPa NW 1.0mph /  1.6km/h 7.0mph /  11.3km/h 37% 0.00in /  0mm
13:10 97.5 °F /  36.4 °C 67.6 °F /  19.8 °C 29.83in /  1010hPa SW 6.0mph /  9.7km/h 11.0mph /  17.7km/h 38% 0.00in /  0mm
13:15 97.9 °F /  36.6 °C 68.0 °F /  20 °C 29.83in /  1010hPa WSW 5.0mph /  8km/h 7.0mph /  11.3km/h 38% 0.00in /  0mm
13:20 97.7 °F /  36.5 °C 67.1 °F /  19.5 °C 29.83in /  1010hPa SSW 2.0mph /  3.2km/h 7.0mph /  11.3km/h 37% 0.00in /  0mm
13:25 98.4 °F /  36.9 °C 69.2 °F /  20.7 °C 29.83in /  1010hPa West 15.0mph /  24.1km/h 15.0mph /  24.1km/h 39% 0.00in /  0mm
13:30 98.2 °F /  36.8 °C 67.5 °F /  19.7 °C 29.83in /  1010hPa West 1.0mph /  1.6km/h 10.0mph /  16.1km/h 37% 0.00in /  0mm
13:35 99.2 °F /  37.3 °C 67.6 °F /  19.8 °C 29.83in /  1010hPa WNW 7.0mph /  11.3km/h 7.0mph /  11.3km/h 36% 0.00in /  0mm
13:40 98.8 °F /  37.1 °C 68.8 °F /  20.4 °C 29.83in /  1010hPa NW 3.0mph /  4.8km/h 6.0mph /  9.7km/h 38% 0.00in /  0mm
13:45 98.6 °F /  37 °C 65.4 °F /  18.6 °C 29.83in /  1010hPa West 6.0mph /  9.7km/h 6.0mph /  9.7km/h 34% 0.00in /  0mm
13:50 98.9 °F /  37.2 °C 65.7 °F /  18.7 °C 29.83in /  1010hPa SW 6.0mph /  9.7km/h 10.0mph /  16.1km/h 34% 0.00in /  0mm
13:55 98.6 °F /  37 °C 64.5 °F /  18.1 °C 29.82in /  1009.7hPa WNW 1.0mph /  1.6km/h 7.0mph /  11.3km/h 33% 0.00in /  0mm
14:00 99.2 °F /  37.3 °C 65.9 °F /  18.8 °C 29.82in /  1009.7hPa WSW 7.0mph /  11.3km/h 8.0mph /  12.9km/h 34% 0.00in /  0mm
14:05 98.8 °F /  37.1 °C 64.7 °F /  18.2 °C 29.82in /  1009.7hPa WNW 4.0mph /  6.4km/h 8.0mph /  12.9km/h 33% 0.00in /  0mm
14:10 98.5 °F /  36.9 °C 66.1 °F /  18.9 °C 29.82in /  1009.7hPa WNW 7.0mph /  11.3km/h 11.0mph /  17.7km/h 35% 0.00in /  0mm
14:16 98.7 °F /  37.1 °C 67.9 °F /  19.9 °C 29.82in /  1009.7hPa SE 4.0mph /  6.4km/h 6.0mph /  9.7km/h 37% 0.00in /  0mm
14:21 99.1 °F /  37.3 °C 67.5 °F /  19.7 °C 29.82in /  1009.7hPa SSE 7.0mph /  11.3km/h 10.0mph /  16.1km/h 36% 0.00in /  0mm
14:26 99.5 °F /  37.5 °C 67.8 °F /  19.9 °C 29.82in /  1009.7hPa SSE 7.0mph /  11.3km/h 7.0mph /  11.3km/h 36% 0.00in /  0mm
14:31 99.3 °F /  37.4 °C 66.0 °F /  18.9 °C 29.82in /  1009.7hPa South 8.0mph /  12.9km/h 8.0mph /  12.9km/h 34% 0.00in /  0mm
14:36 99.3 °F /  37.4 °C 66.8 °F /  19.3 °C 29.82in /  1009.7hPa South 2.0mph /  3.2km/h 6.0mph /  9.7km/h 35% 0.00in /  0mm
14:41 99.7 °F /  37.6 °C 67.2 °F /  19.6 °C 29.82in /  1009.7hPa South 6.0mph /  9.7km/h 10.0mph /  16.1km/h 35% 0.00in /  0mm
14:46 99.7 °F /  37.6 °C 67.2 °F /  19.6 °C 29.82in /  1009.7hPa SW 2.0mph /  3.2km/h 4.0mph /  6.4km/h 35% 0.00in /  0mm
14:51 100.5 °F /  38.1 °C 67.9 °F /  19.9 °C 29.81in /  1009.4hPa West 5.0mph /  8km/h 6.0mph /  9.7km/h 35% 0.00in /  0mm
14:56 100.4 °F /  38 °C 67.0 °F /  19.4 °C 29.82in /  1009.7hPa SW 3.0mph /  4.8km/h 8.0mph /  12.9km/h 34% 0.00in /  0mm
15:01 100.3 °F /  37.9 °C 67.7 °F /  19.8 °C 29.81in /  1009.4hPa WNW 2.0mph /  3.2km/h 8.0mph /  12.9km/h 35% 0.00in /  0mm
15:06 100.5 °F /  38.1 °C 68.7 °F /  20.4 °C 29.81in /  1009.4hPa WNW 2.0mph /  3.2km/h 6.0mph /  9.7km/h 36% 0.00in /  0mm
15:11 100.1 °F /  37.8 °C 65.8 °F /  18.8 °C 29.80in /  1009hPa WNW 5.0mph /  8km/h 7.0mph /  11.3km/h 33% 0.00in /  0mm
15:16 100.1 °F /  37.8 °C 65.8 °F /  18.8 °C 29.80in /  1009hPa SW 3.0mph /  4.8km/h 9.0mph /  14.5km/h 33% 0.00in /  0mm
15:21 100.6 °F /  38.1 °C 66.3 °F /  19.1 °C 29.80in /  1009hPa SW 6.0mph /  9.7km/h 11.0mph /  17.7km/h 33% 0.00in /  0mm
15:26 100.1 °F /  37.8 °C 65.8 °F /  18.8 °C 29.80in /  1009hPa WNW 3.0mph /  4.8km/h 11.0mph /  17.7km/h 33% 0.00in /  0mm
15:31 100.0 °F /  37.8 °C 66.6 °F /  19.2 °C 29.80in /  1009hPa WNW 9.0mph /  14.5km/h 9.0mph /  14.5km/h 34% 0.00in /  0mm
15:36 99.8 °F /  37.7 °C 66.4 °F /  19.1 °C 29.80in /  1009hPa NNW 4.0mph /  6.4km/h 9.0mph /  14.5km/h 34% 0.00in /  0mm
15:41 100.2 °F /  37.9 °C 67.6 °F /  19.8 °C 29.80in /  1009hPa SSW 3.0mph /  4.8km/h 8.0mph /  12.9km/h 35% 0.00in /  0mm
15:46 100.7 °F /  38.2 °C 65.5 °F /  18.6 °C 29.80in /  1009hPa SSW 8.0mph /  12.9km/h 10.0mph /  16.1km/h 32% 0.00in /  0mm
15:51 100.8 °F /  38.2 °C 66.4 °F /  19.1 °C 29.80in /  1009hPa South 3.0mph /  4.8km/h 8.0mph /  12.9km/h 33% 0.00in /  0mm
15:56 100.8 °F /  38.2 °C 64.7 °F /  18.2 °C 29.79in /  1008.7hPa SSW 10.0mph /  16.1km/h 12.0mph /  19.3km/h 31% 0.00in /  0mm
16:01 101.1 °F /  38.4 °C 64.0 °F /  17.8 °C 29.79in /  1008.7hPa West 7.0mph /  11.3km/h 9.0mph /  14.5km/h 30% 0.00in /  0mm
16:06 101.4 °F /  38.6 °C 65.2 °F /  18.4 °C 29.79in /  1008.7hPa South 9.0mph /  14.5km/h 12.0mph /  19.3km/h 31% 0.00in /  0mm
16:11 101.8 °F /  38.8 °C 63.6 °F /  17.6 °C 29.79in /  1008.7hPa SW 8.0mph /  12.9km/h 11.0mph /  17.7km/h 29% 0.00in /  0mm
16:16 101.6 °F /  38.7 °C 63.4 °F /  17.4 °C 29.79in /  1008.7hPa South 5.0mph /  8km/h 11.0mph /  17.7km/h 29% 0.00in /  0mm
16:21 101.8 °F /  38.8 °C 63.6 °F /  17.6 °C 29.79in /  1008.7hPa SW 4.0mph /  6.4km/h 11.0mph /  17.7km/h 29% 0.00in /  0mm
16:26 101.4 °F /  38.6 °C 63.3 °F /  17.4 °C 29.79in /  1008.7hPa SW 7.0mph /  11.3km/h 9.0mph /  14.5km/h 29% 0.00in /  0mm
16:31 101.3 °F /  38.5 °C 64.1 °F /  17.8 °C 29.79in /  1008.7hPa SSE 9.0mph /  14.5km/h 9.0mph /  14.5km/h 30% 0.00in /  0mm
16:36 102.0 °F /  38.9 °C 64.7 °F /  18.2 °C 29.79in /  1008.7hPa SW 9.0mph /  14.5km/h 10.0mph /  16.1km/h 30% 0.00in /  0mm
16:42 101.7 °F /  38.7 °C 63.5 °F /  17.5 °C 29.79in /  1008.7hPa SW 5.0mph /  8km/h 6.0mph /  9.7km/h 29% 0.00in /  0mm
16:47 101.8 °F /  38.8 °C 63.6 °F /  17.6 °C 29.79in /  1008.7hPa SW 6.0mph /  9.7km/h 6.0mph /  9.7km/h 29% 0.00in /  0mm
16:52 101.8 °F /  38.8 °C 63.6 °F /  17.6 °C 29.79in /  1008.7hPa WSW 4.0mph /  6.4km/h 7.0mph /  11.3km/h 29% 0.00in /  0mm
16:57 101.8 °F /  38.8 °C 63.6 °F /  17.6 °C 29.79in /  1008.7hPa SSW 4.0mph /  6.4km/h 10.0mph /  16.1km/h 29% 0.00in /  0mm
17:02 101.9 °F /  38.8 °C 62.7 °F /  17.1 °C 29.79in /  1008.7hPa WNW 1.0mph /  1.6km/h 6.0mph /  9.7km/h 28% 0.00in /  0mm
17:07 101.7 °F /  38.7 °C 65.4 °F /  18.6 °C 29.79in /  1008.7hPa South 5.0mph /  8km/h 8.0mph /  12.9km/h 31% 0.00in /  0mm
17:12 101.9 °F /  38.8 °C 65.6 °F /  18.7 °C 29.78in /  1008.4hPa ESE 4.0mph /  6.4km/h 4.0mph /  6.4km/h 31% 0.00in /  0mm
17:17 102.2 °F /  39 °C 64.9 °F /  18.3 °C 29.78in /  1008.4hPa South 8.0mph /  12.9km/h 11.0mph /  17.7km/h 30% 0.00in /  0mm
17:22 101.9 °F /  38.8 °C 64.7 °F /  18.2 °C 29.78in /  1008.4hPa WSW 7.0mph /  11.3km/h 11.0mph /  17.7km/h 30% 0.00in /  0mm
17:27 101.6 °F /  38.7 °C 64.4 °F /  18 °C 29.78in /  1008.4hPa SW 7.0mph /  11.3km/h 11.0mph /  17.7km/h 30% 0.00in /  0mm
17:32 101.7 °F /  38.7 °C 64.5 °F /  18.1 °C 29.78in /  1008.4hPa WSW 4.0mph /  6.4km/h 7.0mph /  11.3km/h 30% 0.00in /  0mm
17:37 101.6 °F /  38.7 °C 64.4 °F /  18 °C 29.78in /  1008.4hPa SW 3.0mph /  4.8km/h 6.0mph /  9.7km/h 30% 0.00in /  0mm
17:42 101.8 °F /  38.8 °C 66.4 °F /  19.1 °C 29.78in /  1008.4hPa SW 8.0mph /  12.9km/h 11.0mph /  17.7km/h 32% 0.00in /  0mm
17:47 101.3 °F /  38.5 °C 66.0 °F /  18.9 °C 29.78in /  1008.4hPa WSW 6.0mph /  9.7km/h 11.0mph /  17.7km/h 32% 0.00in /  0mm
17:52 101.3 °F /  38.5 °C 65.1 °F /  18.4 °C 29.79in /  1008.7hPa SW 4.0mph /  6.4km/h 7.0mph /  11.3km/h 31% 0.00in /  0mm
17:57 101.1 °F /  38.4 °C 64.9 °F /  18.3 °C 29.78in /  1008.4hPa SE 3.0mph /  4.8km/h 8.0mph /  12.9km/h 31% 0.00in /  0mm
18:02 101.3 °F /  38.5 °C 65.1 °F /  18.4 °C 29.78in /  1008.4hPa SW 4.0mph /  6.4km/h 9.0mph /  14.5km/h 31% 0.00in /  0mm
18:07 101.2 °F /  38.4 °C 65.9 °F /  18.8 °C 29.78in /  1008.4hPa SW 9.0mph /  14.5km/h 9.0mph /  14.5km/h 32% 0.00in /  0mm
18:13 101.1 °F /  38.4 °C 65.8 °F /  18.8 °C 29.78in /  1008.4hPa SW 3.0mph /  4.8km/h 8.0mph /  12.9km/h 32% 0.00in /  0mm
18:18 101.1 °F /  38.4 °C 64.9 °F /  18.3 °C 29.78in /  1008.4hPa SW 4.0mph /  6.4km/h 8.0mph /  12.9km/h 31% 0.00in /  0mm
18:23 101.2 °F /  38.4 °C 65.9 °F /  18.8 °C 29.78in /  1008.4hPa SW 5.0mph /  8km/h 6.0mph /  9.7km/h 32% 0.00in /  0mm
18:28 100.7 °F /  38.2 °C 65.5 °F /  18.6 °C 29.78in /  1008.4hPa SSW 5.0mph /  8km/h 9.0mph /  14.5km/h 32% 0.00in /  0mm
18:33 100.8 °F /  38.2 °C 65.6 °F /  18.7 °C 29.78in /  1008.4hPa South 4.0mph /  6.4km/h 7.0mph /  11.3km/h 32% 0.00in /  0mm
18:38 100.8 °F /  38.2 °C 65.6 °F /  18.7 °C 29.78in /  1008.4hPa South 8.0mph /  12.9km/h 11.0mph /  17.7km/h 32% 0.00in /  0mm
18:43 100.5 °F /  38.1 °C 65.3 °F /  18.5 °C 29.78in /  1008.4hPa SW 4.0mph /  6.4km/h 8.0mph /  12.9km/h 32% 0.00in /  0mm
18:48 100.3 °F /  37.9 °C 65.1 °F /  18.4 °C 29.78in /  1008.4hPa SSW 6.0mph /  9.7km/h 9.0mph /  14.5km/h 32% 0.00in /  0mm
18:53 100.1 °F /  37.8 °C 65.8 °F /  18.8 °C 29.78in /  1008.4hPa SSE 7.0mph /  11.3km/h 9.0mph /  14.5km/h 33% 0.00in /  0mm
18:58 99.8 °F /  37.7 °C 65.6 °F /  18.7 °C 29.78in /  1008.4hPa SW 7.0mph /  11.3km/h 10.0mph /  16.1km/h 33% 0.00in /  0mm
19:03 99.5 °F /  37.5 °C 66.2 °F /  19 °C 29.78in /  1008.4hPa SW 5.0mph /  8km/h 10.0mph /  16.1km/h 34% 0.00in /  0mm
19:08 99.4 °F /  37.4 °C 66.9 °F /  19.4 °C 29.78in /  1008.4hPa SSW 4.0mph /  6.4km/h 6.0mph /  9.7km/h 35% 0.00in /  0mm
19:13 99.3 °F /  37.4 °C 66.8 °F /  19.3 °C 29.79in /  1008.7hPa SSW 5.0mph /  8km/h 8.0mph /  12.9km/h 35% 0.00in /  0mm
19:18 99.1 °F /  37.3 °C 65.8 °F /  18.8 °C 29.79in /  1008.7hPa SW 5.0mph /  8km/h 7.0mph /  11.3km/h 34% 0.00in /  0mm
19:23 98.9 °F /  37.2 °C 66.5 °F /  19.2 °C 29.79in /  1008.7hPa SW 6.0mph /  9.7km/h 7.0mph /  11.3km/h 35% 0.00in /  0mm
19:28 98.6 °F /  37 °C 67.1 °F /  19.5 °C 29.79in /  1008.7hPa SSW 4.0mph /  6.4km/h 9.0mph /  14.5km/h 36% 0.00in /  0mm
19:33 98.4 °F /  36.9 °C 66.9 °F /  19.4 °C 29.79in /  1008.7hPa WSW 6.0mph /  9.7km/h 6.0mph /  9.7km/h 36% 0.00in /  0mm
19:38 98.0 °F /  36.7 °C 66.5 °F /  19.2 °C 29.79in /  1008.7hPa SW 4.0mph /  6.4km/h 7.0mph /  11.3km/h 36% 0.00in /  0mm
19:43 97.8 °F /  36.6 °C 66.3 °F /  19.1 °C 29.79in /  1008.7hPa WSW 7.0mph /  11.3km/h 7.0mph /  11.3km/h 36% 0.00in /  0mm
19:48 97.6 °F /  36.4 °C 66.2 °F /  19 °C 29.79in /  1008.7hPa WSW 4.0mph /  6.4km/h 6.0mph /  9.7km/h 36% 0.00in /  0mm
19:53 97.5 °F /  36.4 °C 67.6 °F /  19.8 °C 29.79in /  1008.7hPa SW 3.0mph /  4.8km/h 4.0mph /  6.4km/h 38% 0.00in /  0mm
19:58 97.3 °F /  36.3 °C 66.7 °F /  19.3 °C 29.79in /  1008.7hPa SW 2.0mph /  3.2km/h 4.0mph /  6.4km/h 37% 0.00in /  0mm
20:03 97.0 °F /  36.1 °C 67.9 °F /  19.9 °C 29.79in /  1008.7hPa SW 3.0mph /  4.8km/h 4.0mph /  6.4km/h 39% 0.00in /  0mm
20:08 96.5 °F /  35.8 °C 67.5 °F /  19.7 °C 29.79in /  1008.7hPa SW 6.0mph /  9.7km/h 6.0mph /  9.7km/h 39% 0.00in /  0mm
20:13 96.1 °F /  35.6 °C 67.2 °F /  19.6 °C 29.80in /  1009hPa SW 3.0mph /  4.8km/h 4.0mph /  6.4km/h 39% 0.00in /  0mm
20:18 95.7 °F /  35.4 °C 67.5 °F /  19.7 °C 29.80in /  1009hPa SW 3.0mph /  4.8km/h 4.0mph /  6.4km/h 40% 0.00in /  0mm
20:23 95.4 °F /  35.2 °C 67.3 °F /  19.6 °C 29.80in /  1009hPa SW 2.0mph /  3.2km/h 5.0mph /  8km/h 40% 0.00in /  0mm
20:28 94.9 °F /  34.9 °C 68.2 °F /  20.1 °C 29.80in /  1009hPa SW 3.0mph /  4.8km/h 4.0mph /  6.4km/h 42% 0.00in /  0mm
20:33 94.6 °F /  34.8 °C 67.3 °F /  19.6 °C 29.80in /  1009hPa SW 2.0mph /  3.2km/h 4.0mph /  6.4km/h 41% 0.00in /  0mm
20:38 94.3 °F /  34.6 °C 67.0 °F /  19.4 °C 29.80in /  1009hPa WSW 1.0mph /  1.6km/h 4.0mph /  6.4km/h 41% 0.00in /  0mm
20:45 94.0 °F /  34.4 °C 67.4 °F /  19.7 °C 29.81in /  1009.4hPa WSW 3.0mph /  4.8km/h 5.0mph /  8km/h 42% 0.00in /  0mm
20:50 93.7 °F /  34.3 °C 67.2 °F /  19.6 °C 29.81in /  1009.4hPa West 4.0mph /  6.4km/h 4.0mph /  6.4km/h 42% 0.00in /  0mm
20:55 93.4 °F /  34.1 °C 66.9 °F /  19.4 °C 29.81in /  1009.4hPa West 5.0mph /  8km/h 6.0mph /  9.7km/h 42% 0.00in /  0mm
21:00 93.1 °F /  33.9 °C 66.6 °F /  19.2 °C 29.81in /  1009.4hPa West 3.0mph /  4.8km/h 4.0mph /  6.4km/h 42% 0.00in /  0mm
21:05 92.7 °F /  33.7 °C 66.9 °F /  19.4 °C 29.81in /  1009.4hPa West 3.0mph /  4.8km/h 3.0mph /  4.8km/h 43% 0.00in /  0mm
21:10 92.3 °F /  33.5 °C 67.2 °F /  19.6 °C 29.81in /  1009.4hPa SW 2.0mph /  3.2km/h 3.0mph /  4.8km/h 44% 0.00in /  0mm
21:15 91.6 °F /  33.1 °C 67.3 °F /  19.6 °C 29.81in /  1009.4hPa SW 1.0mph /  1.6km/h 2.0mph /  3.2km/h 45% 0.00in /  0mm
21:20 91.0 °F /  32.8 °C 67.4 °F /  19.7 °C 29.82in /  1009.7hPa SW 1.0mph /  1.6km/h 2.0mph /  3.2km/h 46% 0.00in /  0mm
21:25 90.5 °F /  32.5 °C 66.9 °F /  19.4 °C 29.82in /  1009.7hPa SW 1.0mph /  1.6km/h 2.0mph /  3.2km/h 46% 0.00in /  0mm
21:30 90.1 °F /  32.3 °C 67.2 °F /  19.6 °C 29.82in /  1009.7hPa WSW 1.0mph /  1.6km/h 1.0mph /  1.6km/h 47% 0.00in /  0mm
21:35 90.0 °F /  32.2 °C 66.5 °F /  19.2 °C 29.82in /  1009.7hPa WSW 1.0mph /  1.6km/h 2.0mph /  3.2km/h 46% 0.00in /  0mm
21:40 90.0 °F /  32.2 °C 67.1 °F /  19.5 °C 29.82in /  1009.7hPa WSW 1.0mph /  1.6km/h 1.0mph /  1.6km/h 47% 0.00in /  0mm
21:45 89.6 °F /  32 °C 67.3 °F /  19.6 °C 29.82in /  1009.7hPa Calm   1.0mph /  1.6km/h 48% 0.00in /  0mm
21:50 88.9 °F /  31.6 °C 66.7 °F /  19.3 °C 29.82in /  1009.7hPa Calm     48% 0.00in /  0mm
21:55 88.4 °F /  31.3 °C 66.8 °F /  19.3 °C 29.82in /  1009.7hPa Calm     49% 0.00in /  0mm
22:00 88.4 °F /  31.3 °C 66.8 °F /  19.3 °C 29.82in /  1009.7hPa Calm     49% 0.00in /  0mm
22:05 88.2 °F /  31.2 °C 67.2 °F /  19.6 °C 29.83in /  1010hPa Calm     50% 0.00in /  0mm
22:10 87.7 °F /  30.9 °C 66.8 °F /  19.3 °C 29.83in /  1010hPa Calm     50% 0.00in /  0mm
22:15 87.4 °F /  30.8 °C 67.1 °F /  19.5 °C 29.83in /  1010hPa Calm     51% 0.00in /  0mm
22:20 87.2 °F /  30.7 °C 66.9 °F /  19.4 °C 29.83in /  1010hPa Calm     51% 0.00in /  0mm
22:25 87.0 °F /  30.6 °C 66.7 °F /  19.3 °C 29.83in /  1010hPa Calm     51% 0.00in /  0mm
22:30 86.7 °F /  30.4 °C 67.0 °F /  19.4 °C 29.83in /  1010hPa Calm     52% 0.00in /  0mm
22:35 86.3 °F /  30.2 °C 66.6 °F /  19.2 °C 29.84in /  1010.4hPa Calm     52% 0.00in /  0mm
22:40 85.9 °F /  29.9 °C 66.8 °F /  19.3 °C 29.84in /  1010.4hPa Calm     53% 0.00in /  0mm
22:45 85.6 °F /  29.8 °C 67.1 °F /  19.5 °C 29.84in /  1010.4hPa Calm     54% 0.00in /  0mm
22:50 85.2 °F /  29.6 °C 66.7 °F /  19.3 °C 29.84in /  1010.4hPa Calm     54% 0.00in /  0mm
22:56 85.2 °F /  29.6 °C 66.7 °F /  19.3 °C 29.84in /  1010.4hPa Calm     54% 0.00in /  0mm
23:01 85.0 °F /  29.4 °C 66.5 °F /  19.2 °C 29.84in /  1010.4hPa Calm     54% 0.00in /  0mm
23:06 85.0 °F /  29.4 °C 67.0 °F /  19.4 °C 29.84in /  1010.4hPa Calm     55% 0.00in /  0mm
23:11 85.0 °F /  29.4 °C 67.0 °F /  19.4 °C 29.84in /  1010.4hPa Calm     55% 0.00in /  0mm
23:16 85.1 °F /  29.5 °C 67.7 °F /  19.8 °C 29.84in /  1010.4hPa Calm     56% 0.00in /  0mm
23:21 84.7 °F /  29.3 °C 67.8 °F /  19.9 °C 29.84in /  1010.4hPa Calm     57% 0.00in /  0mm
23:26 84.6 °F /  29.2 °C 67.7 °F /  19.8 °C 29.84in /  1010.4hPa Calm     57% 0.00in /  0mm
23:31 84.4 °F /  29.1 °C 67.5 °F /  19.7 °C 29.85in /  1010.7hPa Calm     57% 0.00in /  0mm
23:36 84.2 °F /  29 °C 66.8 °F /  19.3 °C 29.84in /  1010.4hPa Calm     56% 0.00in /  0mm
23:41 84.2 °F /  29 °C 67.3 °F /  19.6 °C 29.85in /  1010.7hPa Calm     57% 0.00in /  0mm
23:46 84.1 °F /  28.9 °C 67.2 °F /  19.6 °C 29.84in /  1010.4hPa Calm     57% 0.00in /  0mm
23:51 83.7 °F /  28.7 °C 66.9 °F /  19.4 °C 29.84in /  1010.4hPa Calm     57% 0.00in /  0mm
23:56 83.1 °F /  28.4 °C 67.3 °F /  19.6 °C 29.84in /  1010.4hPa Calm     59% 0.00in /  0mm
Compliments of Weather Underground